sensor_id;sensor_type;location;lat;lon;timestamp;P1;durP1;ratioP1;P2;durP2;ratioP2
52248;SDS011;38541;48.130;8.378;2022-12-11T00:00:47;8.50;;;6.60;;
52248;SDS011;38541;48.130;8.378;2022-12-11T00:03:17;9.65;;;7.55;;
52248;SDS011;38541;48.130;8.378;2022-12-11T00:05:44;10.70;;;8.15;;
52248;SDS011;38541;48.130;8.378;2022-12-11T00:08:11;12.45;;;8.63;;
52248;SDS011;38541;48.130;8.378;2022-12-11T00:10:38;10.57;;;7.57;;
52248;SDS011;38541;48.130;8.378;2022-12-11T00:13:04;6.85;;;5.38;;
52248;SDS011;38541;48.130;8.378;2022-12-11T00:15:30;10.15;;;7.30;;
52248;SDS011;38541;48.130;8.378;2022-12-11T00:17:57;7.72;;;6.20;;
52248;SDS011;38541;48.130;8.378;2022-12-11T00:20:23;7.30;;;5.65;;
52248;SDS011;38541;48.130;8.378;2022-12-11T00:22:50;9.07;;;7.35;;
52248;SDS011;38541;48.130;8.378;2022-12-11T00:25:16;6.78;;;5.65;;
52248;SDS011;38541;48.130;8.378;2022-12-11T00:27:44;7.85;;;6.43;;
52248;SDS011;38541;48.130;8.378;2022-12-11T00:30:11;10.32;;;7.13;;
52248;SDS011;38541;48.130;8.378;2022-12-11T00:32:38;11.93;;;7.63;;
52248;SDS011;38541;48.130;8.378;2022-12-11T00:35:05;9.50;;;6.80;;
52248;SDS011;38541;48.130;8.378;2022-12-11T00:37:32;8.73;;;6.55;;
52248;SDS011;38541;48.130;8.378;2022-12-11T00:39:58;12.55;;;7.63;;
52248;SDS011;38541;48.130;8.378;2022-12-11T00:42:24;9.88;;;7.35;;
52248;SDS011;38541;48.130;8.378;2022-12-11T00:44:51;8.27;;;6.47;;
52248;SDS011;38541;48.130;8.378;2022-12-11T00:47:18;9.45;;;6.85;;
52248;SDS011;38541;48.130;8.378;2022-12-11T00:49:45;9.40;;;6.70;;
52248;SDS011;38541;48.130;8.378;2022-12-11T00:52:15;6.78;;;5.70;;
52248;SDS011;38541;48.130;8.378;2022-12-11T00:54:43;8.82;;;6.50;;
52248;SDS011;38541;48.130;8.378;2022-12-11T00:57:10;8.57;;;5.90;;
52248;SDS011;38541;48.130;8.378;2022-12-11T00:59:37;7.75;;;6.20;;
52248;SDS011;38541;48.130;8.378;2022-12-11T01:02:04;8.57;;;5.75;;
52248;SDS011;38541;48.130;8.378;2022-12-11T01:04:30;7.88;;;6.18;;
52248;SDS011;38541;48.130;8.378;2022-12-11T01:06:57;6.25;;;5.50;;
52248;SDS011;38541;48.130;8.378;2022-12-11T01:09:24;6.53;;;5.28;;
52248;SDS011;38541;48.130;8.378;2022-12-11T01:12:13;7.20;;;5.10;;
52248;SDS011;38541;48.130;8.378;2022-12-11T01:14:40;7.50;;;5.13;;
52248;SDS011;38541;48.130;8.378;2022-12-11T01:17:07;5.90;;;5.18;;
52248;SDS011;38541;48.130;8.378;2022-12-11T01:19:34;7.40;;;6.03;;
52248;SDS011;38541;48.130;8.378;2022-12-11T01:22:00;7.18;;;5.22;;
52248;SDS011;38541;48.130;8.378;2022-12-11T01:24:27;6.35;;;4.82;;
52248;SDS011;38541;48.130;8.378;2022-12-11T01:26:54;8.90;;;6.00;;
52248;SDS011;38541;48.130;8.378;2022-12-11T01:29:20;6.78;;;5.13;;
52248;SDS011;38541;48.130;8.378;2022-12-11T01:31:46;7.63;;;5.43;;
52248;SDS011;38541;48.130;8.378;2022-12-11T01:34:13;5.95;;;5.38;;
52248;SDS011;38541;48.130;8.378;2022-12-11T01:36:39;6.65;;;5.40;;
52248;SDS011;38541;48.130;8.378;2022-12-11T01:39:06;7.00;;;5.55;;
52248;SDS011;38541;48.130;8.378;2022-12-11T01:41:32;7.90;;;5.60;;
52248;SDS011;38541;48.130;8.378;2022-12-11T01:44:06;8.82;;;5.32;;
52248;SDS011;38541;48.130;8.378;2022-12-11T01:46:53;7.30;;;5.20;;
52248;SDS011;38541;48.130;8.378;2022-12-11T01:49:20;7.93;;;6.70;;
52248;SDS011;38541;48.130;8.378;2022-12-11T01:51:52;10.23;;;7.00;;
52248;SDS011;38541;48.130;8.378;2022-12-11T01:54:23;11.02;;;7.93;;
52248;SDS011;38541;48.130;8.378;2022-12-11T01:56:52;11.25;;;7.85;;
52248;SDS011;38541;48.130;8.378;2022-12-11T01:59:23;11.10;;;7.82;;
52248;SDS011;38541;48.130;8.378;2022-12-11T02:02:02;9.52;;;7.43;;
52248;SDS011;38541;48.130;8.378;2022-12-11T02:04:33;11.43;;;7.60;;
52248;SDS011;38541;48.130;8.378;2022-12-11T02:07:01;11.32;;;8.07;;
52248;SDS011;38541;48.130;8.378;2022-12-11T02:09:32;13.27;;;8.05;;
52248;SDS011;38541;48.130;8.378;2022-12-11T02:12:05;15.18;;;10.25;;
52248;SDS011;38541;48.130;8.378;2022-12-11T02:20:41;10.70;;;7.63;;
52248;SDS011;38541;48.130;8.378;2022-12-11T02:26:20;12.60;;;6.68;;
52248;SDS011;38541;48.130;8.378;2022-12-11T02:29:03;10.38;;;7.45;;
52248;SDS011;38541;48.130;8.378;2022-12-11T02:31:44;12.23;;;7.30;;
52248;SDS011;38541;48.130;8.378;2022-12-11T02:34:22;11.35;;;8.32;;
52248;SDS011;38541;48.130;8.378;2022-12-11T02:36:57;9.93;;;7.63;;
52248;SDS011;38541;48.130;8.378;2022-12-11T02:39:27;12.98;;;8.15;;
52248;SDS011;38541;48.130;8.378;2022-12-11T02:41:55;10.88;;;7.75;;
52248;SDS011;38541;48.130;8.378;2022-12-11T02:44:23;11.15;;;8.13;;
52248;SDS011;38541;48.130;8.378;2022-12-11T02:46:53;10.15;;;7.43;;
52248;SDS011;38541;48.130;8.378;2022-12-11T02:49:20;10.30;;;7.13;;
52248;SDS011;38541;48.130;8.378;2022-12-11T02:51:49;6.95;;;5.97;;
52248;SDS011;38541;48.130;8.378;2022-12-11T02:54:19;8.52;;;6.45;;
52248;SDS011;38541;48.130;8.378;2022-12-11T02:56:51;8.68;;;6.45;;
52248;SDS011;38541;48.130;8.378;2022-12-11T02:59:37;8.82;;;7.15;;
52248;SDS011;38541;48.130;8.378;2022-12-11T03:02:06;11.43;;;7.07;;
52248;SDS011;38541;48.130;8.378;2022-12-11T03:04:34;9.13;;;6.82;;
52248;SDS011;38541;48.130;8.378;2022-12-11T03:07:03;10.95;;;6.95;;
52248;SDS011;38541;48.130;8.378;2022-12-11T03:09:39;9.13;;;6.60;;
52248;SDS011;38541;48.130;8.378;2022-12-11T03:12:10;8.25;;;5.88;;
52248;SDS011;38541;48.130;8.378;2022-12-11T03:14:38;7.30;;;6.05;;
52248;SDS011;38541;48.130;8.378;2022-12-11T03:17:11;8.30;;;6.43;;
52248;SDS011;38541;48.130;8.378;2022-12-11T03:19:46;9.23;;;6.30;;
52248;SDS011;38541;48.130;8.378;2022-12-11T03:22:20;9.02;;;6.68;;
52248;SDS011;38541;48.130;8.378;2022-12-11T03:25:11;8.52;;;6.28;;
52248;SDS011;38541;48.130;8.378;2022-12-11T03:27:44;8.88;;;6.10;;
52248;SDS011;38541;48.130;8.378;2022-12-11T03:30:20;8.50;;;6.18;;
52248;SDS011;38541;48.130;8.378;2022-12-11T03:35:18;8.18;;;6.47;;
52248;SDS011;38541;48.130;8.378;2022-12-11T03:37:50;9.05;;;6.38;;
52248;SDS011;38541;48.130;8.378;2022-12-11T03:40:20;8.98;;;6.55;;
52248;SDS011;38541;48.130;8.378;2022-12-11T03:42:49;9.93;;;6.57;;
52248;SDS011;38541;48.130;8.378;2022-12-11T03:45:19;9.63;;;7.35;;
52248;SDS011;38541;48.130;8.378;2022-12-11T03:47:47;9.50;;;6.85;;
52248;SDS011;38541;48.130;8.378;2022-12-11T03:50:16;9.45;;;6.50;;
52248;SDS011;38541;48.130;8.378;2022-12-11T03:52:45;8.73;;;6.00;;
52248;SDS011;38541;48.130;8.378;2022-12-11T03:55:13;9.65;;;7.05;;
52248;SDS011;38541;48.130;8.378;2022-12-11T03:57:41;14.90;;;10.45;;
52248;SDS011;38541;48.130;8.378;2022-12-11T04:00:10;11.48;;;8.15;;
52248;SDS011;38541;48.130;8.378;2022-12-11T04:02:40;9.20;;;6.85;;
52248;SDS011;38541;48.130;8.378;2022-12-11T04:05:07;7.25;;;6.20;;
52248;SDS011;38541;48.130;8.378;2022-12-11T04:07:35;8.35;;;6.30;;
52248;SDS011;38541;48.130;8.378;2022-12-11T04:10:03;6.85;;;5.63;;
52248;SDS011;38541;48.130;8.378;2022-12-11T04:12:30;8.07;;;5.78;;
52248;SDS011;38541;48.130;8.378;2022-12-11T04:14:57;8.73;;;6.45;;
52248;SDS011;38541;48.130;8.378;2022-12-11T04:17:30;7.47;;;5.38;;
52248;SDS011;38541;48.130;8.378;2022-12-11T04:20:16;7.90;;;5.55;;
52248;SDS011;38541;48.130;8.378;2022-12-11T04:23:03;8.45;;;4.80;;
52248;SDS011;38541;48.130;8.378;2022-12-11T04:25:49;9.13;;;5.57;;
52248;SDS011;38541;48.130;8.378;2022-12-11T04:28:16;6.78;;;5.10;;
52248;SDS011;38541;48.130;8.378;2022-12-11T04:30:46;6.88;;;5.32;;
52248;SDS011;38541;48.130;8.378;2022-12-11T04:33:16;8.57;;;5.57;;
52248;SDS011;38541;48.130;8.378;2022-12-11T04:35:43;7.88;;;5.13;;
52248;SDS011;38541;48.130;8.378;2022-12-11T04:38:09;9.85;;;6.25;;
52248;SDS011;38541;48.130;8.378;2022-12-11T04:40:36;9.02;;;5.85;;
52248;SDS011;38541;48.130;8.378;2022-12-11T04:43:02;7.60;;;6.28;;
52248;SDS011;38541;48.130;8.378;2022-12-11T04:45:29;7.85;;;5.45;;
52248;SDS011;38541;48.130;8.378;2022-12-11T04:47:55;7.93;;;5.80;;
52248;SDS011;38541;48.130;8.378;2022-12-11T04:50:22;8.82;;;6.07;;
52248;SDS011;38541;48.130;8.378;2022-12-11T04:52:48;10.02;;;5.88;;
52248;SDS011;38541;48.130;8.378;2022-12-11T04:55:14;10.88;;;6.95;;
52248;SDS011;38541;48.130;8.378;2022-12-11T04:57:41;9.82;;;6.32;;
52248;SDS011;38541;48.130;8.378;2022-12-11T05:00:09;8.02;;;6.60;;
52248;SDS011;38541;48.130;8.378;2022-12-11T05:02:37;8.93;;;6.22;;
52248;SDS011;38541;48.130;8.378;2022-12-11T05:05:05;7.05;;;5.05;;
52248;SDS011;38541;48.130;8.378;2022-12-11T05:07:35;8.82;;;6.05;;
52248;SDS011;38541;48.130;8.378;2022-12-11T05:10:03;8.00;;;5.78;;
52248;SDS011;38541;48.130;8.378;2022-12-11T05:12:30;7.72;;;5.75;;
52248;SDS011;38541;48.130;8.378;2022-12-11T05:14:57;10.40;;;6.43;;
52248;SDS011;38541;48.130;8.378;2022-12-11T05:17:24;8.85;;;6.35;;
52248;SDS011;38541;48.130;8.378;2022-12-11T05:19:50;7.13;;;5.18;;
52248;SDS011;38541;48.130;8.378;2022-12-11T05:22:17;9.05;;;5.60;;
52248;SDS011;38541;48.130;8.378;2022-12-11T05:24:44;9.25;;;6.93;;
52248;SDS011;38541;48.130;8.378;2022-12-11T05:27:11;10.70;;;7.03;;
52248;SDS011;38541;48.130;8.378;2022-12-11T05:29:37;10.05;;;6.60;;
52248;SDS011;38541;48.130;8.378;2022-12-11T05:32:04;12.85;;;7.97;;
52248;SDS011;38541;48.130;8.378;2022-12-11T05:34:30;8.30;;;6.05;;
52248;SDS011;38541;48.130;8.378;2022-12-11T05:36:58;8.30;;;6.22;;
52248;SDS011;38541;48.130;8.378;2022-12-11T05:39:24;8.75;;;6.93;;
52248;SDS011;38541;48.130;8.378;2022-12-11T05:41:51;10.77;;;7.70;;
52248;SDS011;38541;48.130;8.378;2022-12-11T05:44:17;10.32;;;7.82;;
52248;SDS011;38541;48.130;8.378;2022-12-11T05:46:43;9.15;;;7.05;;
52248;SDS011;38541;48.130;8.378;2022-12-11T05:49:10;9.48;;;6.57;;
52248;SDS011;38541;48.130;8.378;2022-12-11T05:51:37;11.00;;;7.43;;
52248;SDS011;38541;48.130;8.378;2022-12-11T05:54:04;9.80;;;7.45;;
52248;SDS011;38541;48.130;8.378;2022-12-11T05:56:31;9.40;;;7.28;;
52248;SDS011;38541;48.130;8.378;2022-12-11T05:59:00;9.93;;;6.40;;
52248;SDS011;38541;48.130;8.378;2022-12-11T06:01:29;8.82;;;6.43;;
52248;SDS011;38541;48.130;8.378;2022-12-11T06:03:57;10.27;;;7.07;;
52248;SDS011;38541;48.130;8.378;2022-12-11T06:06:24;10.20;;;7.32;;
52248;SDS011;38541;48.130;8.378;2022-12-11T06:08:52;11.18;;;7.03;;
52248;SDS011;38541;48.130;8.378;2022-12-11T06:11:20;7.68;;;6.10;;
52248;SDS011;38541;48.130;8.378;2022-12-11T06:13:49;9.18;;;6.50;;
52248;SDS011;38541;48.130;8.378;2022-12-11T06:16:17;8.75;;;6.60;;
52248;SDS011;38541;48.130;8.378;2022-12-11T06:18:45;10.15;;;7.53;;
52248;SDS011;38541;48.130;8.378;2022-12-11T06:23:46;9.60;;;6.18;;
52248;SDS011;38541;48.130;8.378;2022-12-11T06:26:14;8.35;;;6.53;;
52248;SDS011;38541;48.130;8.378;2022-12-11T06:28:41;9.10;;;7.10;;
52248;SDS011;38541;48.130;8.378;2022-12-11T06:31:08;11.93;;;8.45;;
52248;SDS011;38541;48.130;8.378;2022-12-11T06:33:35;11.70;;;8.02;;
52248;SDS011;38541;48.130;8.378;2022-12-11T06:36:05;14.57;;;9.20;;
52248;SDS011;38541;48.130;8.378;2022-12-11T06:38:34;11.48;;;8.30;;
52248;SDS011;38541;48.130;8.378;2022-12-11T06:41:01;10.43;;;7.38;;
52248;SDS011;38541;48.130;8.378;2022-12-11T06:43:33;8.57;;;6.70;;
52248;SDS011;38541;48.130;8.378;2022-12-11T06:46:04;9.80;;;7.10;;
52248;SDS011;38541;48.130;8.378;2022-12-11T06:48:32;11.55;;;7.30;;
52248;SDS011;38541;48.130;8.378;2022-12-11T06:50:59;10.45;;;7.43;;
52248;SDS011;38541;48.130;8.378;2022-12-11T06:53:25;9.98;;;7.85;;
52248;SDS011;38541;48.130;8.378;2022-12-11T06:55:51;10.32;;;7.63;;
52248;SDS011;38541;48.130;8.378;2022-12-11T06:58:18;11.40;;;8.45;;
52248;SDS011;38541;48.130;8.378;2022-12-11T07:00:44;10.05;;;7.70;;
52248;SDS011;38541;48.130;8.378;2022-12-11T07:03:11;10.75;;;7.90;;
52248;SDS011;38541;48.130;8.378;2022-12-11T07:05:38;8.52;;;6.35;;
52248;SDS011;38541;48.130;8.378;2022-12-11T07:08:05;9.20;;;6.85;;
52248;SDS011;38541;48.130;8.378;2022-12-11T07:10:32;10.85;;;6.60;;
52248;SDS011;38541;48.130;8.378;2022-12-11T07:12:59;11.38;;;7.43;;
52248;SDS011;38541;48.130;8.378;2022-12-11T07:15:25;10.82;;;7.35;;
52248;SDS011;38541;48.130;8.378;2022-12-11T07:17:52;11.65;;;8.32;;
52248;SDS011;38541;48.130;8.378;2022-12-11T07:20:18;15.63;;;10.50;;
52248;SDS011;38541;48.130;8.378;2022-12-11T07:22:45;21.75;;;13.05;;
52248;SDS011;38541;48.130;8.378;2022-12-11T07:25:12;25.88;;;17.60;;
52248;SDS011;38541;48.130;8.378;2022-12-11T07:27:39;29.15;;;18.98;;
52248;SDS011;38541;48.130;8.378;2022-12-11T07:30:07;25.67;;;16.02;;
52248;SDS011;38541;48.130;8.378;2022-12-11T07:32:34;21.25;;;15.02;;
52248;SDS011;38541;48.130;8.378;2022-12-11T07:35:00;19.27;;;12.05;;
52248;SDS011;38541;48.130;8.378;2022-12-11T07:37:27;18.45;;;12.63;;
52248;SDS011;38541;48.130;8.378;2022-12-11T07:39:53;11.25;;;7.32;;
52248;SDS011;38541;48.130;8.378;2022-12-11T07:42:20;14.30;;;9.43;;
52248;SDS011;38541;48.130;8.378;2022-12-11T07:44:46;19.95;;;12.30;;
52248;SDS011;38541;48.130;8.378;2022-12-11T07:47:13;13.77;;;9.73;;
52248;SDS011;38541;48.130;8.378;2022-12-11T07:49:40;31.73;;;18.67;;
52248;SDS011;38541;48.130;8.378;2022-12-11T07:52:06;26.00;;;16.58;;
52248;SDS011;38541;48.130;8.378;2022-12-11T07:54:33;18.58;;;11.85;;
52248;SDS011;38541;48.130;8.378;2022-12-11T07:57:00;11.57;;;9.30;;
52248;SDS011;38541;48.130;8.378;2022-12-11T07:59:26;15.65;;;11.40;;
52248;SDS011;38541;48.130;8.378;2022-12-11T08:01:53;19.40;;;13.68;;
52248;SDS011;38541;48.130;8.378;2022-12-11T08:04:19;14.23;;;10.52;;
52248;SDS011;38541;48.130;8.378;2022-12-11T08:06:46;15.23;;;10.88;;
52248;SDS011;38541;48.130;8.378;2022-12-11T08:09:12;15.30;;;10.65;;
52248;SDS011;38541;48.130;8.378;2022-12-11T08:11:47;14.55;;;11.02;;
52248;SDS011;38541;48.130;8.378;2022-12-11T08:14:17;17.10;;;11.52;;
52248;SDS011;38541;48.130;8.378;2022-12-11T08:16:44;15.20;;;11.40;;
52248;SDS011;38541;48.130;8.378;2022-12-11T08:19:11;15.52;;;10.60;;
52248;SDS011;38541;48.130;8.378;2022-12-11T08:21:38;17.70;;;12.13;;
52248;SDS011;38541;48.130;8.378;2022-12-11T08:24:05;18.67;;;12.70;;
52248;SDS011;38541;48.130;8.378;2022-12-11T08:26:32;42.03;;;18.42;;
52248;SDS011;38541;48.130;8.378;2022-12-11T08:28:59;39.80;;;19.70;;
52248;SDS011;38541;48.130;8.378;2022-12-11T08:31:27;24.13;;;14.68;;
52248;SDS011;38541;48.130;8.378;2022-12-11T08:33:54;29.30;;;19.38;;
52248;SDS011;38541;48.130;8.378;2022-12-11T08:36:22;25.88;;;17.10;;
52248;SDS011;38541;48.130;8.378;2022-12-11T08:38:49;26.75;;;14.63;;
52248;SDS011;38541;48.130;8.378;2022-12-11T08:41:20;24.40;;;16.02;;
52248;SDS011;38541;48.130;8.378;2022-12-11T08:43:49;27.15;;;16.73;;
52248;SDS011;38541;48.130;8.378;2022-12-11T08:46:20;22.42;;;15.32;;
52248;SDS011;38541;48.130;8.378;2022-12-11T08:48:49;25.77;;;16.60;;
52248;SDS011;38541;48.130;8.378;2022-12-11T08:51:17;23.70;;;15.93;;
52248;SDS011;38541;48.130;8.378;2022-12-11T08:53:48;23.90;;;14.05;;
52248;SDS011;38541;48.130;8.378;2022-12-11T08:56:16;16.30;;;13.10;;
52248;SDS011;38541;48.130;8.378;2022-12-11T08:58:44;20.90;;;13.68;;
52248;SDS011;38541;48.130;8.378;2022-12-11T09:01:12;16.42;;;11.77;;
52248;SDS011;38541;48.130;8.378;2022-12-11T09:03:40;22.33;;;16.30;;
52248;SDS011;38541;48.130;8.378;2022-12-11T09:06:12;72.25;;;44.13;;
52248;SDS011;38541;48.130;8.378;2022-12-11T09:08:40;52.42;;;32.15;;
52248;SDS011;38541;48.130;8.378;2022-12-11T09:11:19;64.65;;;40.63;;
52248;SDS011;38541;48.130;8.378;2022-12-11T09:13:48;36.60;;;18.20;;
52248;SDS011;38541;48.130;8.378;2022-12-11T09:16:15;19.48;;;13.93;;
52248;SDS011;38541;48.130;8.378;2022-12-11T09:18:44;15.60;;;10.93;;
52248;SDS011;38541;48.130;8.378;2022-12-11T09:21:17;10.70;;;9.27;;
52248;SDS011;38541;48.130;8.378;2022-12-11T09:23:45;13.48;;;10.35;;
52248;SDS011;38541;48.130;8.378;2022-12-11T09:26:13;18.52;;;14.45;;
52248;SDS011;38541;48.130;8.378;2022-12-11T09:28:41;31.00;;;21.05;;
52248;SDS011;38541;48.130;8.378;2022-12-11T09:31:13;23.60;;;15.90;;
52248;SDS011;38541;48.130;8.378;2022-12-11T09:33:41;18.90;;;12.20;;
52248;SDS011;38541;48.130;8.378;2022-12-11T09:36:08;15.85;;;10.77;;
52248;SDS011;38541;48.130;8.378;2022-12-11T09:38:35;16.13;;;10.68;;
52248;SDS011;38541;48.130;8.378;2022-12-11T09:41:16;20.63;;;15.48;;
52248;SDS011;38541;48.130;8.378;2022-12-11T09:46:44;16.80;;;13.85;;
52248;SDS011;38541;48.130;8.378;2022-12-11T09:51:50;16.05;;;10.88;;
52248;SDS011;38541;48.130;8.378;2022-12-11T09:54:52;18.55;;;11.52;;
52248;SDS011;38541;48.130;8.378;2022-12-11T10:08:44;14.75;;;9.48;;
52248;SDS011;38541;48.130;8.378;2022-12-11T10:11:36;14.13;;;8.93;;
52248;SDS011;38541;48.130;8.378;2022-12-11T10:16:51;12.07;;;8.43;;
52248;SDS011;38541;48.130;8.378;2022-12-11T10:19:27;11.00;;;8.48;;
52248;SDS011;38541;48.130;8.378;2022-12-11T10:21:55;16.33;;;10.40;;
52248;SDS011;38541;48.130;8.378;2022-12-11T10:24:28;15.52;;;9.73;;
52248;SDS011;38541;48.130;8.378;2022-12-11T10:27:31;15.25;;;10.05;;
52248;SDS011;38541;48.130;8.378;2022-12-11T10:35:35;11.75;;;8.93;;
52248;SDS011;38541;48.130;8.378;2022-12-11T10:43:11;12.15;;;7.28;;
52248;SDS011;38541;48.130;8.378;2022-12-11T10:45:37;7.28;;;5.35;;
52248;SDS011;38541;48.130;8.378;2022-12-11T10:48:05;5.93;;;4.85;;
52248;SDS011;38541;48.130;8.378;2022-12-11T10:50:35;4.20;;;3.80;;
52248;SDS011;38541;48.130;8.378;2022-12-11T10:53:03;6.63;;;4.00;;
52248;SDS011;38541;48.130;8.378;2022-12-11T10:55:36;4.80;;;3.70;;
52248;SDS011;38541;48.130;8.378;2022-12-11T10:58:20;4.35;;;3.95;;
52248;SDS011;38541;48.130;8.378;2022-12-11T11:01:13;3.28;;;2.97;;
52248;SDS011;38541;48.130;8.378;2022-12-11T11:03:51;2.90;;;2.60;;
52248;SDS011;38541;48.130;8.378;2022-12-11T11:06:21;2.78;;;2.33;;
52248;SDS011;38541;48.130;8.378;2022-12-11T11:08:50;4.18;;;2.58;;
52248;SDS011;38541;48.130;8.378;2022-12-11T11:11:26;3.47;;;2.70;;
52248;SDS011;38541;48.130;8.378;2022-12-11T11:14:05;3.80;;;2.80;;
52248;SDS011;38541;48.130;8.378;2022-12-11T11:16:41;4.60;;;3.50;;
52248;SDS011;38541;48.130;8.378;2022-12-11T11:19:19;3.88;;;3.03;;
52248;SDS011;38541;48.130;8.378;2022-12-11T11:21:47;3.78;;;2.83;;
52248;SDS011;38541;48.130;8.378;2022-12-11T11:24:20;2.75;;;2.50;;
52248;SDS011;38541;48.130;8.378;2022-12-11T11:26:51;3.83;;;2.45;;
52248;SDS011;38541;48.130;8.378;2022-12-11T11:29:38;2.00;;;1.90;;
52248;SDS011;38541;48.130;8.378;2022-12-11T11:32:14;1.80;;;1.70;;
52248;SDS011;38541;48.130;8.378;2022-12-11T11:34:45;2.38;;;1.88;;
52248;SDS011;38541;48.130;8.378;2022-12-11T11:37:29;2.72;;;2.10;;
52248;SDS011;38541;48.130;8.378;2022-12-11T11:40:00;2.10;;;1.90;;
52248;SDS011;38541;48.130;8.378;2022-12-11T11:48:27;2.72;;;2.05;;
52248;SDS011;38541;48.130;8.378;2022-12-11T11:51:24;3.40;;;2.30;;
52248;SDS011;38541;48.130;8.378;2022-12-11T11:53:56;4.38;;;1.90;;
52248;SDS011;38541;48.130;8.378;2022-12-11T11:56:27;2.15;;;1.90;;
52248;SDS011;38541;48.130;8.378;2022-12-11T12:01:35;2.00;;;1.80;;
52248;SDS011;38541;48.130;8.378;2022-12-11T12:04:03;3.80;;;2.72;;
52248;SDS011;38541;48.130;8.378;2022-12-11T12:06:32;2.47;;;2.03;;
52248;SDS011;38541;48.130;8.378;2022-12-11T12:12:14;2.85;;;2.08;;
52248;SDS011;38541;48.130;8.378;2022-12-11T12:17:23;2.90;;;2.70;;
52248;SDS011;38541;48.130;8.378;2022-12-11T12:25:28;6.00;;;5.50;;
52248;SDS011;38541;48.130;8.378;2022-12-11T12:28:35;4.38;;;3.97;;
52248;SDS011;38541;48.130;8.378;2022-12-11T12:45:16;6.40;;;4.32;;
52248;SDS011;38541;48.130;8.378;2022-12-11T12:47:51;3.17;;;2.80;;
52248;SDS011;38541;48.130;8.378;2022-12-11T12:50:19;3.30;;;3.00;;
52248;SDS011;38541;48.130;8.378;2022-12-11T12:52:48;2.55;;;2.35;;
52248;SDS011;38541;48.130;8.378;2022-12-11T12:55:21;4.10;;;2.55;;
52248;SDS011;38541;48.130;8.378;2022-12-11T13:03:47;2.80;;;2.50;;
52248;SDS011;38541;48.130;8.378;2022-12-11T13:05:59;3.92;;;2.40;;
52248;SDS011;38541;48.130;8.378;2022-12-11T13:08:29;2.63;;;2.20;;
52248;SDS011;38541;48.130;8.378;2022-12-11T13:11:04;3.13;;;2.92;;
52248;SDS011;38541;48.130;8.378;2022-12-11T13:13:35;2.70;;;2.40;;
52248;SDS011;38541;48.130;8.378;2022-12-11T13:18:42;2.78;;;2.58;;
52248;SDS011;38541;48.130;8.378;2022-12-11T13:21:24;5.70;;;4.78;;
52248;SDS011;38541;48.130;8.378;2022-12-11T13:24:15;2.15;;;2.03;;
52248;SDS011;38541;48.130;8.378;2022-12-11T13:26:51;2.90;;;2.67;;
52248;SDS011;38541;48.130;8.378;2022-12-11T13:29:34;4.13;;;3.53;;
52248;SDS011;38541;48.130;8.378;2022-12-11T13:34:37;5.28;;;3.75;;
52248;SDS011;38541;48.130;8.378;2022-12-11T13:37:06;3.13;;;2.83;;
52248;SDS011;38541;48.130;8.378;2022-12-11T13:39:49;2.60;;;2.40;;
52248;SDS011;38541;48.130;8.378;2022-12-11T13:42:27;3.25;;;2.95;;
52248;SDS011;38541;48.130;8.378;2022-12-11T13:44:58;3.92;;;2.78;;
52248;SDS011;38541;48.130;8.378;2022-12-11T13:47:26;3.20;;;2.38;;
52248;SDS011;38541;48.130;8.378;2022-12-11T13:49:54;4.20;;;2.13;;
52248;SDS011;38541;48.130;8.378;2022-12-11T13:52:27;2.03;;;1.60;;
52248;SDS011;38541;48.130;8.378;2022-12-11T13:54:54;1.98;;;1.77;;
52248;SDS011;38541;48.130;8.378;2022-12-11T13:57:25;2.03;;;1.85;;
52248;SDS011;38541;48.130;8.378;2022-12-11T13:59:56;2.00;;;1.90;;
52248;SDS011;38541;48.130;8.378;2022-12-11T14:02:27;3.75;;;2.50;;
52248;SDS011;38541;48.130;8.378;2022-12-11T14:05:02;3.90;;;3.22;;
52248;SDS011;38541;48.130;8.378;2022-12-11T14:07:34;3.53;;;3.22;;
52248;SDS011;38541;48.130;8.378;2022-12-11T14:10:15;4.25;;;3.60;;
52248;SDS011;38541;48.130;8.378;2022-12-11T14:12:55;4.57;;;4.18;;
52248;SDS011;38541;48.130;8.378;2022-12-11T14:15:27;2.67;;;2.47;;
52248;SDS011;38541;48.130;8.378;2022-12-11T14:17:55;8.48;;;6.00;;
52248;SDS011;38541;48.130;8.378;2022-12-11T14:20:30;2.05;;;1.95;;
52248;SDS011;38541;48.130;8.378;2022-12-11T14:25:52;2.60;;;2.40;;
52248;SDS011;38541;48.130;8.378;2022-12-11T14:28:20;3.00;;;2.72;;
52248;SDS011;38541;48.130;8.378;2022-12-11T14:30:56;20.73;;;2.63;;
52248;SDS011;38541;48.130;8.378;2022-12-11T14:33:26;2.20;;;2.10;;
52248;SDS011;38541;48.130;8.378;2022-12-11T14:35:57;2.17;;;1.95;;
52248;SDS011;38541;48.130;8.378;2022-12-11T14:40:52;1.85;;;1.63;;
52248;SDS011;38541;48.130;8.378;2022-12-11T14:43:35;2.35;;;2.15;;
52248;SDS011;38541;48.130;8.378;2022-12-11T14:46:09;2.45;;;2.25;;
52248;SDS011;38541;48.130;8.378;2022-12-11T14:48:43;3.10;;;2.80;;
52248;SDS011;38541;48.130;8.378;2022-12-11T14:51:25;3.22;;;2.58;;
52248;SDS011;38541;48.130;8.378;2022-12-11T14:53:56;2.35;;;2.25;;
52248;SDS011;38541;48.130;8.378;2022-12-11T14:56:24;2.90;;;2.30;;
52248;SDS011;38541;48.130;8.378;2022-12-11T15:01:32;1.90;;;1.77;;
52248;SDS011;38541;48.130;8.378;2022-12-11T15:06:47;2.10;;;1.90;;
52248;SDS011;38541;48.130;8.378;2022-12-11T15:09:26;3.30;;;2.40;;
52248;SDS011;38541;48.130;8.378;2022-12-11T15:11:55;3.40;;;2.53;;
52248;SDS011;38541;48.130;8.378;2022-12-11T15:14:32;2.47;;;2.28;;
52248;SDS011;38541;48.130;8.378;2022-12-11T15:16:58;2.65;;;2.45;;
52248;SDS011;38541;48.130;8.378;2022-12-11T15:22:00;2.50;;;2.08;;
52248;SDS011;38541;48.130;8.378;2022-12-11T15:24:35;3.10;;;2.65;;
52248;SDS011;38541;48.130;8.378;2022-12-11T15:27:05;8.18;;;7.10;;
52248;SDS011;38541;48.130;8.378;2022-12-11T15:29:39;9.05;;;8.07;;
52248;SDS011;38541;48.130;8.378;2022-12-11T15:34:40;15.20;;;11.52;;
52248;SDS011;38541;48.130;8.378;2022-12-11T15:39:47;8.45;;;7.35;;
52248;SDS011;38541;48.130;8.378;2022-12-11T15:42:15;8.68;;;6.38;;
52248;SDS011;38541;48.130;8.378;2022-12-11T15:44:48;6.03;;;5.10;;
52248;SDS011;38541;48.130;8.378;2022-12-11T15:47:15;5.65;;;4.50;;
52248;SDS011;38541;48.130;8.378;2022-12-11T15:49:46;6.38;;;5.68;;
52248;SDS011;38541;48.130;8.378;2022-12-11T15:52:12;7.03;;;5.68;;
52248;SDS011;38541;48.130;8.378;2022-12-11T15:54:39;5.47;;;4.90;;
52248;SDS011;38541;48.130;8.378;2022-12-11T15:57:06;5.57;;;4.57;;
52248;SDS011;38541;48.130;8.378;2022-12-11T15:59:41;6.32;;;4.07;;
52248;SDS011;38541;48.130;8.378;2022-12-11T16:02:12;6.10;;;5.20;;
52248;SDS011;38541;48.130;8.378;2022-12-11T16:04:39;5.80;;;4.78;;
52248;SDS011;38541;48.130;8.378;2022-12-11T16:07:20;5.75;;;4.40;;
52248;SDS011;38541;48.130;8.378;2022-12-11T16:09:48;4.70;;;4.13;;
52248;SDS011;38541;48.130;8.378;2022-12-11T16:12:15;5.32;;;4.45;;
52248;SDS011;38541;48.130;8.378;2022-12-11T16:14:42;5.40;;;4.38;;
52248;SDS011;38541;48.130;8.378;2022-12-11T16:17:10;4.47;;;4.07;;
52248;SDS011;38541;48.130;8.378;2022-12-11T16:19:39;6.53;;;5.72;;
52248;SDS011;38541;48.130;8.378;2022-12-11T16:22:07;10.60;;;8.70;;
52248;SDS011;38541;48.130;8.378;2022-12-11T16:24:34;14.13;;;10.07;;
52248;SDS011;38541;48.130;8.378;2022-12-11T16:27:01;13.95;;;10.02;;
52248;SDS011;38541;48.130;8.378;2022-12-11T16:29:32;17.05;;;11.48;;
52248;SDS011;38541;48.130;8.378;2022-12-11T16:31:59;16.38;;;11.55;;
52248;SDS011;38541;48.130;8.378;2022-12-11T16:34:26;15.95;;;11.25;;
52248;SDS011;38541;48.130;8.378;2022-12-11T16:36:55;10.27;;;7.53;;
52248;SDS011;38541;48.130;8.378;2022-12-11T16:39:23;7.88;;;5.75;;
52248;SDS011;38541;48.130;8.378;2022-12-11T16:41:49;5.50;;;4.85;;
52248;SDS011;38541;48.130;8.378;2022-12-11T16:44:19;6.63;;;4.93;;
52248;SDS011;38541;48.130;8.378;2022-12-11T16:46:48;6.00;;;4.70;;